createdAt,value
2023-02-24T00:00:34.114Z,34.70
2023-02-24T00:03:06.589Z,35.55
2023-02-24T00:05:39.935Z,35.03
2023-02-24T00:08:10.639Z,36.17
2023-02-24T00:10:41.677Z,36.15
2023-02-24T00:13:13.437Z,36.58
2023-02-24T00:15:43.996Z,36.08
2023-02-24T00:18:16.502Z,34.65
2023-02-24T00:20:47.165Z,35.63
2023-02-24T00:23:18.739Z,36.00
2023-02-24T00:25:49.368Z,35.15
2023-02-24T00:28:21.188Z,34.70
2023-02-24T00:30:52.293Z,33.80
2023-02-24T00:33:24.559Z,35.20
2023-02-24T00:35:56.215Z,33.73
2023-02-24T00:38:26.817Z,35.52
2023-02-24T00:40:58.587Z,35.10
2023-02-24T00:43:29.320Z,31.80
2023-02-24T00:46:02.783Z,32.38
2023-02-24T00:48:34.993Z,32.73
2023-02-24T00:51:07.250Z,33.40
2023-02-24T00:53:39.443Z,31.77
2023-02-24T00:56:17.124Z,32.00
2023-02-24T00:58:47.817Z,31.87
2023-02-24T01:01:20.962Z,32.20
2023-02-24T01:03:55.168Z,30.82
2023-02-24T01:06:29.774Z,30.60
2023-02-24T01:09:00.458Z,29.52
2023-02-24T01:11:52.358Z,30.25
2023-02-24T01:14:26.224Z,29.10
2023-02-24T01:16:59.047Z,30.00
2023-02-24T01:19:32.056Z,29.75
2023-02-24T01:22:05.150Z,28.45
2023-02-24T01:24:38.434Z,28.45
2023-02-24T01:27:10.402Z,29.20
2023-02-24T01:29:40.983Z,29.10
2023-02-24T01:32:17.787Z,28.45
2023-02-24T01:34:50.344Z,29.37
2023-02-24T01:37:21.918Z,29.20
2023-02-24T01:39:52.613Z,27.82
2023-02-24T01:42:24.093Z,29.87
2023-02-24T01:45:03.501Z,30.27
2023-02-24T01:47:34.328Z,29.32
2023-02-24T01:50:06.324Z,30.40
2023-02-24T01:52:38.232Z,29.52
2023-02-24T01:55:11.799Z,29.32
2023-02-24T01:57:42.706Z,29.80
2023-02-24T02:00:17.080Z,30.40
2023-02-24T02:02:51.561Z,27.62
2023-02-24T02:05:22.131Z,28.45
2023-02-24T02:07:54.297Z,27.20
2023-02-24T02:10:25.686Z,26.25
2023-02-24T02:12:57.416Z,26.60
2023-02-24T02:15:30.056Z,25.82
2023-02-24T02:18:03.481Z,24.87
2023-02-24T02:21:08.884Z,25.60
2023-02-24T02:23:48.176Z,25.23
2023-02-24T02:26:40.749Z,24.98
2023-02-24T02:29:25.593Z,23.45
2023-02-24T02:32:32.826Z,23.65
2023-02-24T02:35:09.206Z,23.15
2023-02-24T02:37:45.423Z,21.27
2023-02-24T02:40:25.543Z,21.27
2023-02-24T02:43:16.611Z,21.45
2023-02-24T02:45:53.276Z,21.87
2023-02-24T02:48:29.202Z,20.48
2023-02-24T02:51:08.922Z,20.85
2023-02-24T02:53:51.928Z,20.45
2023-02-24T02:56:33.443Z,19.20
2023-02-24T02:59:09.203Z,20.20
2023-02-24T03:01:59.120Z,18.65
2023-02-24T03:04:34.318Z,19.57
2023-02-24T03:07:08.642Z,20.52
2023-02-24T03:09:46.042Z,18.95
2023-02-24T03:12:20.622Z,18.65
2023-02-24T03:14:59.946Z,19.10
2023-02-24T03:17:35.768Z,18.05
2023-02-24T03:20:16.109Z,18.05
2023-02-24T03:23:05.423Z,18.35
2023-02-24T03:25:45.262Z,17.12
2023-02-24T03:28:37.717Z,17.80
2023-02-24T03:31:14.847Z,18.23
2023-02-24T03:33:51.416Z,16.85
2023-02-24T03:36:27.684Z,17.35
2023-02-24T03:39:02.836Z,18.00
2023-02-24T03:41:41.872Z,16.90
2023-02-24T03:44:19.383Z,16.23
2023-02-24T03:49:22.764Z,16.40
2023-02-24T03:52:00.124Z,17.40
2023-02-24T03:54:47.739Z,17.25
2023-02-24T03:58:00.274Z,18.15
2023-02-24T04:00:47.609Z,16.70
2023-02-24T04:03:32.140Z,17.67
2023-02-24T04:06:07.600Z,18.55
2023-02-24T04:08:48.699Z,18.02
2023-02-24T04:11:30.899Z,18.80
2023-02-24T04:14:14.090Z,19.48
2023-02-24T04:17:10.796Z,18.57
2023-02-24T04:19:49.342Z,18.12
2023-02-24T04:22:27.814Z,18.98
2023-02-24T04:25:05.088Z,18.37
2023-02-24T04:27:59.686Z,18.17
2023-02-24T04:30:36.936Z,18.23
2023-02-24T04:33:11.701Z,19.00
2023-02-24T04:35:49.508Z,17.77
2023-02-24T04:38:31.777Z,18.82
2023-02-24T04:41:16.077Z,18.77
2023-02-24T04:44:07.923Z,19.23
2023-02-24T04:46:43.065Z,18.15
2023-02-24T04:49:16.583Z,20.20
2023-02-24T04:51:49.988Z,20.32
2023-02-24T04:56:59.344Z,19.30
2023-02-24T04:59:33.596Z,18.55
2023-02-24T05:02:06.155Z,19.35
2023-02-24T05:04:40.137Z,19.25
2023-02-24T05:07:13.401Z,18.40
2023-02-24T05:09:43.971Z,19.12
2023-02-24T05:12:14.562Z,18.95
2023-02-24T05:14:45.111Z,18.75
2023-02-24T05:17:29.471Z,18.60
2023-02-24T05:20:17.762Z,19.62
2023-02-24T05:22:52.580Z,19.25
2023-02-24T05:25:25.428Z,19.23
2023-02-24T05:27:56.947Z,18.75
2023-02-24T05:30:27.746Z,18.30
2023-02-24T05:32:58.768Z,18.45
2023-02-24T05:35:30.881Z,17.82
2023-02-24T05:38:01.404Z,18.42
2023-02-24T05:40:32.535Z,17.67
2023-02-24T05:43:04.638Z,17.95
2023-02-24T05:45:35.285Z,17.35
2023-02-24T05:48:06.148Z,17.85
2023-02-24T05:50:36.836Z,16.97
2023-02-24T05:53:08.959Z,17.45
2023-02-24T05:55:40.721Z,17.23
2023-02-24T05:58:11.285Z,18.05
2023-02-24T06:00:43.471Z,17.62
2023-02-24T06:03:15.990Z,17.48
2023-02-24T06:05:58.306Z,17.90
2023-02-24T06:08:28.837Z,17.20
2023-02-24T06:11:01.116Z,17.48
2023-02-24T06:13:31.645Z,17.48
2023-02-24T06:16:02.261Z,17.80
2023-02-24T06:18:32.822Z,17.73
2023-02-24T06:21:04.568Z,18.15
2023-02-24T06:23:36.001Z,18.27
2023-02-24T06:26:09.153Z,17.57
2023-02-24T06:28:42.183Z,16.70
2023-02-24T06:31:14.249Z,17.82
2023-02-24T06:33:45.276Z,18.52
2023-02-24T06:36:16.494Z,17.50
2023-02-24T06:38:49.731Z,17.77
2023-02-24T06:41:20.580Z,18.23
2023-02-24T06:43:53.116Z,18.15
2023-02-24T06:46:23.727Z,17.65
2023-02-24T06:48:54.302Z,17.40
2023-02-24T06:51:24.941Z,17.17
2023-02-24T06:53:56.085Z,17.00
2023-02-24T06:56:27.705Z,16.95
2023-02-24T06:58:59.394Z,16.90
2023-02-24T07:01:30.080Z,17.15
2023-02-24T07:04:11.366Z,18.98
2023-02-24T07:06:44.166Z,19.52
2023-02-24T07:09:17.439Z,19.17
2023-02-24T07:11:52.643Z,19.90
2023-02-24T07:14:25.956Z,18.27
2023-02-24T07:16:58.547Z,17.48
2023-02-24T07:19:32.610Z,17.57
2023-02-24T07:22:05.219Z,17.00
2023-02-24T07:24:39.467Z,16.25
2023-02-24T07:27:17.026Z,15.68
2023-02-24T07:29:47.800Z,16.10
2023-02-24T07:32:18.917Z,15.55
2023-02-24T07:34:50.617Z,15.25
2023-02-24T07:37:21.223Z,15.13
2023-02-24T07:39:52.051Z,14.85
2023-02-24T07:42:22.691Z,14.63
2023-02-24T07:44:55.733Z,14.75
2023-02-24T07:47:26.756Z,13.93
2023-02-24T07:50:01.823Z,13.85
2023-02-24T07:52:33.054Z,14.93
2023-02-24T07:55:04.148Z,13.48
2023-02-24T07:57:36.293Z,8.68
2023-02-24T08:00:22.972Z,6.58
2023-02-24T08:02:56.487Z,4.80
2023-02-24T08:05:27.120Z,3.83
2023-02-24T08:07:57.660Z,3.20
2023-02-24T08:10:28.147Z,2.60
2023-02-24T08:13:00.281Z,2.47
2023-02-24T08:15:32.921Z,2.95
2023-02-24T08:18:03.526Z,3.17
2023-02-24T08:20:39.442Z,3.67
2023-02-24T08:23:11.162Z,2.95
2023-02-24T08:25:43.179Z,3.08
2023-02-24T08:28:13.672Z,2.90
2023-02-24T08:30:46.282Z,2.70
2023-02-24T08:33:24.784Z,3.83
2023-02-24T08:36:03.109Z,3.75
2023-02-24T08:38:45.150Z,3.75
2023-02-24T08:41:21.791Z,3.30
2023-02-24T08:43:52.617Z,4.00
2023-02-24T08:46:30.352Z,4.22
2023-02-24T08:49:01.709Z,3.62
2023-02-24T08:51:36.428Z,3.55
2023-02-24T08:54:13.612Z,3.65
2023-02-24T08:56:48.849Z,3.30
2023-02-24T08:59:38.858Z,3.27
2023-02-24T09:02:24.994Z,3.45
2023-02-24T09:05:03.148Z,3.20
2023-02-24T09:07:39.107Z,3.30
2023-02-24T09:10:12.466Z,3.05
2023-02-24T09:12:43.297Z,3.33
2023-02-24T09:15:17.993Z,3.87
2023-02-24T09:17:50.497Z,3.55
2023-02-24T09:20:25.917Z,3.58
2023-02-24T09:25:44.702Z,3.30
2023-02-24T09:28:18.505Z,3.95
2023-02-24T09:30:53.992Z,3.70
2023-02-24T09:36:06.057Z,3.72
2023-02-24T09:41:54.531Z,3.98
2023-02-24T09:44:44.594Z,3.83
2023-02-24T09:47:34.359Z,4.05
2023-02-24T09:50:14.505Z,4.25
2023-02-24T09:52:46.337Z,4.72
2023-02-24T09:55:28.040Z,5.20
2023-02-24T09:58:29.371Z,5.17
2023-02-24T10:01:25.756Z,4.78
2023-02-24T10:04:20.329Z,4.37
2023-02-24T10:06:47.644Z,4.62
2023-02-24T10:09:52.832Z,4.92
2023-02-24T10:12:28.973Z,4.50
2023-02-24T10:15:20.532Z,5.70
2023-02-24T10:17:56.644Z,4.80
2023-02-24T10:20:31.418Z,5.35
2023-02-24T10:23:13.537Z,4.58
2023-02-24T10:25:54.512Z,5.50
2023-02-24T10:28:44.055Z,5.15
2023-02-24T10:31:34.075Z,5.45
2023-02-24T10:34:07.534Z,4.92
2023-02-24T10:36:39.426Z,5.53
2023-02-24T10:39:27.334Z,4.78
2023-02-24T10:42:02.827Z,4.53
2023-02-24T10:47:12.569Z,3.95
2023-02-24T10:49:47.094Z,4.35
2023-02-24T10:52:19.614Z,4.17
2023-02-24T10:54:57.756Z,4.47
2023-02-24T10:57:29.910Z,4.30
2023-02-24T11:00:08.232Z,4.33
2023-02-24T11:02:48.055Z,4.60
2023-02-24T11:05:36.150Z,4.30
2023-02-24T11:08:38.066Z,4.80
2023-02-24T11:11:28.406Z,5.05
2023-02-24T11:14:19.301Z,4.97
2023-02-24T11:17:10.626Z,5.00
2023-02-24T11:19:50.134Z,4.60
2023-02-24T11:22:24.495Z,5.20
2023-02-24T11:24:55.289Z,5.17
2023-02-24T11:27:27.563Z,4.92
2023-02-24T11:30:07.828Z,5.40
2023-02-24T11:33:04.913Z,5.00
2023-02-24T11:35:47.295Z,4.40
2023-02-24T11:38:29.632Z,4.62
2023-02-24T11:41:03.090Z,5.47
2023-02-24T11:43:36.597Z,4.67
2023-02-24T11:46:15.777Z,4.05
2023-02-24T11:48:49.388Z,4.20
2023-02-24T11:51:25.748Z,4.62
2023-02-24T11:54:04.969Z,3.95
2023-02-24T11:57:01.113Z,4.47
2023-02-24T11:59:40.656Z,3.95
2023-02-24T12:02:47.944Z,4.12
2023-02-24T12:05:21.435Z,3.50
2023-02-24T12:07:57.925Z,3.80
2023-02-24T12:10:34.305Z,3.30
2023-02-24T12:13:15.201Z,3.60
2023-02-24T12:16:04.919Z,4.17
2023-02-24T12:18:41.377Z,3.10
2023-02-24T12:21:24.838Z,2.80
2023-02-24T12:23:55.470Z,3.35
2023-02-24T12:26:39.434Z,3.47
2023-02-24T12:29:40.069Z,2.80
2023-02-24T12:32:33.573Z,2.77
2023-02-24T12:35:17.236Z,2.95
2023-02-24T12:38:07.162Z,2.58
2023-02-24T12:40:46.369Z,2.50
2023-02-24T12:43:34.723Z,2.58
2023-02-24T12:46:18.824Z,2.33
2023-02-24T12:49:12.140Z,2.37
2023-02-24T12:51:57.117Z,2.15
2023-02-24T12:54:36.284Z,2.00
2023-02-24T12:57:34.050Z,2.50
2023-02-24T13:00:10.430Z,1.85
2023-02-24T13:03:06.257Z,2.70
2023-02-24T13:05:54.693Z,2.33
2023-02-24T13:08:55.342Z,2.10
2023-02-24T13:11:37.815Z,2.40
2023-02-24T13:14:19.706Z,2.42
2023-02-24T13:16:50.236Z,2.67
2023-02-24T13:19:29.079Z,2.65
2023-02-24T13:22:18.101Z,2.67
2023-02-24T13:25:00.131Z,3.62
2023-02-24T13:27:39.050Z,2.65
2023-02-24T13:30:20.273Z,3.12
2023-02-24T13:33:03.630Z,3.02
2023-02-24T13:35:36.688Z,2.85
2023-02-24T13:38:13.014Z,2.77
2023-02-24T13:40:45.175Z,3.25
2023-02-24T13:43:27.491Z,3.20
2023-02-24T13:46:01.205Z,3.12
2023-02-24T13:48:34.685Z,4.10
2023-02-24T13:51:20.516Z,3.15
2023-02-24T13:53:56.015Z,2.90
2023-02-24T13:56:46.625Z,2.90
2023-02-24T13:59:39.586Z,2.50
2023-02-24T14:02:16.055Z,3.25
2023-02-24T14:04:52.079Z,3.92
2023-02-24T14:07:35.037Z,3.25
2023-02-24T14:10:08.525Z,2.60
2023-02-24T14:12:40.752Z,3.10
2023-02-24T14:15:15.308Z,2.92
2023-02-24T14:17:47.248Z,3.27
2023-02-24T14:20:23.985Z,3.40
2023-02-24T14:22:58.991Z,3.02
2023-02-24T14:25:38.135Z,3.17
2023-02-24T14:28:10.069Z,3.20
2023-02-24T14:30:42.461Z,3.17
2023-02-24T14:33:18.685Z,3.77
2023-02-24T14:35:49.162Z,3.77
2023-02-24T14:38:37.690Z,4.10
2023-02-24T14:41:10.883Z,3.55
2023-02-24T14:43:44.656Z,4.20
2023-02-24T14:46:16.681Z,3.77
2023-02-24T14:48:49.167Z,3.40
2023-02-24T14:51:28.594Z,3.20
2023-02-24T14:54:03.240Z,3.08
2023-02-24T14:56:36.087Z,3.10
2023-02-24T14:59:12.201Z,3.08
2023-02-24T15:01:45.653Z,3.42
2023-02-24T15:04:37.833Z,3.05
2023-02-24T15:07:11.257Z,3.20
2023-02-24T15:09:47.658Z,4.25
2023-02-24T15:12:33.217Z,4.95
2023-02-24T15:15:21.859Z,4.62
2023-02-24T15:18:02.435Z,3.70
2023-02-24T15:20:36.337Z,3.00
2023-02-24T15:23:08.051Z,3.42
2023-02-24T15:25:48.783Z,3.37
2023-02-24T15:28:36.852Z,3.50
2023-02-24T15:31:11.564Z,4.92
2023-02-24T15:33:45.663Z,5.08
2023-02-24T15:36:25.318Z,5.20
2023-02-24T15:38:58.680Z,7.03
2023-02-24T15:41:41.062Z,6.40
2023-02-24T15:44:33.731Z,6.85
2023-02-24T15:47:22.537Z,5.40
2023-02-24T15:49:53.139Z,4.15
2023-02-24T15:52:29.049Z,3.70
2023-02-24T15:55:02.293Z,3.40
2023-02-24T15:57:33.882Z,4.83
2023-02-24T16:00:06.931Z,5.50
2023-02-24T16:02:37.395Z,4.50
2023-02-24T16:05:09.046Z,4.80
2023-02-24T16:07:39.583Z,4.92
2023-02-24T16:10:14.040Z,4.90
2023-02-24T16:12:47.401Z,4.12
2023-02-24T16:15:20.809Z,4.12
2023-02-24T16:17:52.609Z,4.40
2023-02-24T16:20:27.600Z,4.78
2023-02-24T16:23:05.011Z,4.75
2023-02-24T16:25:39.532Z,5.22
2023-02-24T16:28:16.901Z,5.67
2023-02-24T16:30:48.549Z,6.58
2023-02-24T16:33:22.056Z,7.33
2023-02-24T16:35:53.736Z,8.40
2023-02-24T16:38:29.812Z,8.98
2023-02-24T16:41:00.280Z,9.20
2023-02-24T16:43:30.735Z,9.30
2023-02-24T16:46:06.982Z,8.48
2023-02-24T16:48:41.330Z,9.48
2023-02-24T16:51:12.914Z,9.30
2023-02-24T16:53:43.876Z,9.08
2023-02-24T16:56:15.907Z,9.13
2023-02-24T16:58:47.603Z,9.05
2023-02-24T17:01:21.337Z,9.58
2023-02-24T17:03:54.207Z,9.55
2023-02-24T17:06:32.205Z,9.05
2023-02-24T17:09:05.932Z,8.90
2023-02-24T17:11:36.417Z,8.60
2023-02-24T17:14:06.964Z,8.65
2023-02-24T17:16:39.013Z,9.68
2023-02-24T17:19:09.885Z,8.65
2023-02-24T17:21:43.568Z,8.00
2023-02-24T17:24:19.849Z,7.50
2023-02-24T17:26:50.298Z,7.47
2023-02-24T17:29:20.778Z,7.00
2023-02-24T17:31:52.776Z,8.63
2023-02-24T17:34:24.442Z,9.03
2023-02-24T17:36:56.096Z,9.90
2023-02-24T17:39:26.679Z,10.03
2023-02-24T17:41:57.328Z,10.40
2023-02-24T17:44:29.235Z,12.00
2023-02-24T17:46:59.799Z,12.68
2023-02-24T17:49:30.370Z,11.28
2023-02-24T17:52:00.938Z,9.90
2023-02-24T17:54:31.401Z,9.98
2023-02-24T17:57:01.890Z,8.80
2023-02-24T17:59:32.438Z,7.65
2023-02-24T18:02:03.118Z,7.55
2023-02-24T18:04:33.590Z,8.33
2023-02-24T18:07:04.105Z,9.10
2023-02-24T18:09:34.594Z,9.10
2023-02-24T18:12:06.066Z,8.15
2023-02-24T18:14:37.827Z,7.62
2023-02-24T18:17:08.346Z,7.33
2023-02-24T18:19:39.906Z,8.65
2023-02-24T18:22:10.505Z,9.00
2023-02-24T18:24:40.933Z,10.98
2023-02-24T18:27:11.607Z,12.55
2023-02-24T18:29:42.304Z,13.18
2023-02-24T18:32:14.217Z,13.18
2023-02-24T18:34:44.947Z,16.50
2023-02-24T18:37:16.270Z,17.15
2023-02-24T18:39:48.148Z,18.62
2023-02-24T18:42:18.725Z,15.63
2023-02-24T18:44:50.564Z,12.07
2023-02-24T18:47:21.138Z,8.80
2023-02-24T18:49:51.654Z,9.50
2023-02-24T18:52:22.115Z,8.90
2023-02-24T18:54:53.372Z,9.20
2023-02-24T18:57:23.853Z,8.28
2023-02-24T18:59:54.394Z,8.08
2023-02-24T19:02:26.060Z,9.05
2023-02-24T19:04:56.572Z,8.43
2023-02-24T19:07:27.033Z,8.90
2023-02-24T19:10:03.734Z,9.03
2023-02-24T19:12:34.297Z,10.18
2023-02-24T19:15:07.703Z,9.65
2023-02-24T19:17:38.564Z,10.45
2023-02-24T19:20:14.734Z,10.20
2023-02-24T19:22:46.833Z,9.23
2023-02-24T19:25:18.679Z,9.70
2023-02-24T19:27:50.190Z,9.93
2023-02-24T19:30:20.728Z,10.08
2023-02-24T19:32:51.470Z,9.05
2023-02-24T19:35:22.130Z,10.23
2023-02-24T19:37:52.850Z,11.00
2023-02-24T19:40:23.840Z,9.50
2023-02-24T19:42:54.347Z,11.05
2023-02-24T19:45:27.942Z,11.57
2023-02-24T19:47:59.637Z,10.90
2023-02-24T19:50:30.329Z,10.45
2023-02-24T19:53:00.967Z,8.83
2023-02-24T19:55:31.684Z,7.58
2023-02-24T19:58:02.222Z,5.37
2023-02-24T20:00:32.766Z,3.40
2023-02-24T20:03:03.237Z,3.10
2023-02-24T20:05:35.346Z,3.20
2023-02-24T20:08:05.946Z,3.50
2023-02-24T20:10:36.431Z,3.08
2023-02-24T20:13:07.303Z,3.00
2023-02-24T20:15:37.943Z,2.90
2023-02-24T20:18:09.131Z,2.12
2023-02-24T20:20:39.623Z,2.47
2023-02-24T20:23:10.105Z,2.58
2023-02-24T20:25:41.377Z,2.20
2023-02-24T20:28:11.836Z,2.47
2023-02-24T20:30:42.410Z,2.60
2023-02-24T20:33:13.403Z,3.12
2023-02-24T20:35:44.435Z,2.98
2023-02-24T20:38:15.518Z,2.60
2023-02-24T20:40:46.111Z,2.98
2023-02-24T20:43:16.559Z,3.80
2023-02-24T20:45:47.275Z,3.33
2023-02-24T20:48:20.004Z,3.62
2023-02-24T20:50:50.661Z,4.15
2023-02-24T20:53:22.308Z,3.95
2023-02-24T20:55:53.106Z,3.42
2023-02-24T20:58:25.265Z,3.47
2023-02-24T21:00:55.784Z,3.72
2023-02-24T21:03:26.401Z,3.55
2023-02-24T21:06:09.176Z,2.80
2023-02-24T21:08:29.517Z,3.10
2023-02-24T21:11:00.040Z,3.12
2023-02-24T21:13:30.555Z,3.50
2023-02-24T21:16:02.440Z,3.47
2023-02-24T21:18:32.984Z,3.65
2023-02-24T21:21:03.489Z,3.30
2023-02-24T21:23:35.938Z,3.37
2023-02-24T21:26:07.322Z,3.10
2023-02-24T21:28:38.425Z,3.42
2023-02-24T21:31:12.016Z,3.50
2023-02-24T21:33:43.026Z,4.00
2023-02-24T21:36:16.798Z,3.92
2023-02-24T21:38:48.145Z,4.53
2023-02-24T21:41:21.851Z,4.03
2023-02-24T21:43:56.636Z,3.83
2023-02-24T21:46:28.840Z,3.85
2023-02-24T21:49:00.985Z,4.50
2023-02-24T21:51:31.659Z,4.80
2023-02-24T21:54:02.244Z,5.62
2023-02-24T21:56:32.816Z,6.05
2023-02-24T21:59:06.510Z,6.47
2023-02-24T22:01:40.897Z,5.12
2023-02-24T22:04:14.130Z,4.97
2023-02-24T22:06:45.324Z,5.78
2023-02-24T22:09:18.836Z,5.87
2023-02-24T22:11:50.921Z,5.37
2023-02-24T22:14:22.808Z,5.03
2023-02-24T22:16:54.364Z,5.70
2023-02-24T22:19:26.403Z,5.12
2023-02-24T22:21:59.665Z,4.85
2023-02-24T22:24:30.137Z,5.17
2023-02-24T22:27:00.718Z,5.10
2023-02-24T22:29:31.255Z,5.12
2023-02-24T22:32:02.001Z,5.25
2023-02-24T22:34:32.672Z,4.33
2023-02-24T22:37:03.287Z,4.25
2023-02-24T22:39:33.825Z,4.50
2023-02-24T22:42:04.839Z,4.97
2023-02-24T22:44:36.959Z,4.60
2023-02-24T22:47:07.566Z,5.22
2023-02-24T22:49:38.063Z,5.40
2023-02-24T22:52:08.591Z,5.03
2023-02-24T22:54:39.175Z,4.85
2023-02-24T22:57:09.647Z,4.65
2023-02-24T22:59:40.286Z,5.00
2023-02-24T23:02:10.916Z,4.62
2023-02-24T23:04:41.442Z,4.30
2023-02-24T23:07:11.939Z,3.87
2023-02-24T23:09:43.979Z,4.95
2023-02-24T23:12:15.745Z,4.00
2023-02-24T23:14:46.277Z,4.28
2023-02-24T23:17:16.975Z,4.20
2023-02-24T23:19:47.446Z,3.87
2023-02-24T23:22:19.262Z,4.30
2023-02-24T23:24:51.059Z,4.20
2023-02-24T23:27:23.678Z,4.97
2023-02-24T23:29:54.158Z,5.50
2023-02-24T23:32:27.527Z,5.50
2023-02-24T23:34:58.026Z,4.78
2023-02-24T23:37:28.695Z,4.87
2023-02-24T23:39:59.185Z,4.50
2023-02-24T23:42:30.825Z,4.87
2023-02-24T23:45:01.387Z,5.20
2023-02-24T23:47:33.946Z,5.03
2023-02-24T23:50:05.288Z,4.72
2023-02-24T23:52:36.034Z,5.00
2023-02-24T23:55:06.940Z,5.03
2023-02-24T23:57:38.044Z,4.53
